sensor_id;sensor_type;location;lat;lon;timestamp;temperature;humidity
28608;DHT22;15802;45.654;13.804;2022-09-16T00:00:27;22.70;99.90
28608;DHT22;15802;45.654;13.804;2022-09-16T00:02:54;22.70;99.90
28608;DHT22;15802;45.654;13.804;2022-09-16T00:05:19;22.70;99.90
28608;DHT22;15802;45.654;13.804;2022-09-16T00:07:45;22.70;99.90
28608;DHT22;15802;45.654;13.804;2022-09-16T00:10:11;22.70;99.90
28608;DHT22;15802;45.654;13.804;2022-09-16T00:12:37;22.70;99.90
28608;DHT22;15802;45.654;13.804;2022-09-16T00:15:03;22.70;99.90
28608;DHT22;15802;45.654;13.804;2022-09-16T00:17:29;22.80;99.90
28608;DHT22;15802;45.654;13.804;2022-09-16T00:19:55;22.80;99.90
28608;DHT22;15802;45.654;13.804;2022-09-16T00:22:22;22.90;99.90
28608;DHT22;15802;45.654;13.804;2022-09-16T00:24:48;22.90;99.90
28608;DHT22;15802;45.654;13.804;2022-09-16T00:27:14;22.90;99.90
28608;DHT22;15802;45.654;13.804;2022-09-16T00:29:40;22.90;99.90
28608;DHT22;15802;45.654;13.804;2022-09-16T00:32:06;22.90;99.90
28608;DHT22;15802;45.654;13.804;2022-09-16T00:34:31;22.90;99.90
28608;DHT22;15802;45.654;13.804;2022-09-16T00:36:57;22.90;99.90
28608;DHT22;15802;45.654;13.804;2022-09-16T00:39:23;22.80;99.90
28608;DHT22;15802;45.654;13.804;2022-09-16T00:41:49;22.80;99.90
28608;DHT22;15802;45.654;13.804;2022-09-16T00:46:59;22.70;99.90
28608;DHT22;15802;45.654;13.804;2022-09-16T00:49:26;22.70;99.90
28608;DHT22;15802;45.654;13.804;2022-09-16T00:51:53;22.70;99.90
28608;DHT22;15802;45.654;13.804;2022-09-16T00:54:22;22.70;99.90
28608;DHT22;15802;45.654;13.804;2022-09-16T00:56:50;22.80;99.90
28608;DHT22;15802;45.654;13.804;2022-09-16T00:59:19;22.80;99.90
28608;DHT22;15802;45.654;13.804;2022-09-16T01:01:46;22.90;99.90
28608;DHT22;15802;45.654;13.804;2022-09-16T01:04:30;22.90;99.90
28608;DHT22;15802;45.654;13.804;2022-09-16T01:06:56;22.90;99.90
28608;DHT22;15802;45.654;13.804;2022-09-16T01:09:22;22.90;99.90
28608;DHT22;15802;45.654;13.804;2022-09-16T01:11:50;22.90;99.90
28608;DHT22;15802;45.654;13.804;2022-09-16T01:14:16;22.90;99.90
28608;DHT22;15802;45.654;13.804;2022-09-16T01:17:09;23.00;99.90
28608;DHT22;15802;45.654;13.804;2022-09-16T01:22:32;22.90;99.90
28608;DHT22;15802;45.654;13.804;2022-09-16T01:25:09;23.00;99.90
28608;DHT22;15802;45.654;13.804;2022-09-16T01:30:38;22.90;99.90
28608;DHT22;15802;45.654;13.804;2022-09-16T01:33:28;22.90;99.90
28608;DHT22;15802;45.654;13.804;2022-09-16T01:38:47;22.90;99.90
28608;DHT22;15802;45.654;13.804;2022-09-16T01:44:02;22.90;99.90
28608;DHT22;15802;45.654;13.804;2022-09-16T01:46:31;22.90;99.90
28608;DHT22;15802;45.654;13.804;2022-09-16T01:49:01;22.90;99.90
28608;DHT22;15802;45.654;13.804;2022-09-16T01:51:32;22.90;99.90
28608;DHT22;15802;45.654;13.804;2022-09-16T01:54:05;22.90;99.90
28608;DHT22;15802;45.654;13.804;2022-09-16T01:56:42;22.90;99.90
28608;DHT22;15802;45.654;13.804;2022-09-16T01:59:10;22.80;99.90
28608;DHT22;15802;45.654;13.804;2022-09-16T02:01:43;22.80;99.90
28608;DHT22;15802;45.654;13.804;2022-09-16T02:04:11;22.80;99.90
28608;DHT22;15802;45.654;13.804;2022-09-16T02:06:38;22.80;99.90
28608;DHT22;15802;45.654;13.804;2022-09-16T02:09:09;22.90;99.90
28608;DHT22;15802;45.654;13.804;2022-09-16T02:11:35;22.80;99.90
28608;DHT22;15802;45.654;13.804;2022-09-16T02:14:04;22.80;99.90
28608;DHT22;15802;45.654;13.804;2022-09-16T02:16:33;22.80;99.90
28608;DHT22;15802;45.654;13.804;2022-09-16T02:19:01;22.80;99.90
28608;DHT22;15802;45.654;13.804;2022-09-16T02:21:30;22.80;99.90
28608;DHT22;15802;45.654;13.804;2022-09-16T02:23:58;22.90;99.90
28608;DHT22;15802;45.654;13.804;2022-09-16T02:26:26;22.80;99.90
28608;DHT22;15802;45.654;13.804;2022-09-16T02:28:53;22.80;99.90
28608;DHT22;15802;45.654;13.804;2022-09-16T02:31:22;22.80;99.90
28608;DHT22;15802;45.654;13.804;2022-09-16T02:33:53;22.80;99.90
28608;DHT22;15802;45.654;13.804;2022-09-16T02:36:20;22.80;99.90
28608;DHT22;15802;45.654;13.804;2022-09-16T02:38:47;22.90;99.90
28608;DHT22;15802;45.654;13.804;2022-09-16T02:41:13;22.90;99.90
28608;DHT22;15802;45.654;13.804;2022-09-16T02:43:40;22.90;99.90
28608;DHT22;15802;45.654;13.804;2022-09-16T02:46:08;23.00;99.90
28608;DHT22;15802;45.654;13.804;2022-09-16T02:48:39;23.00;99.90
28608;DHT22;15802;45.654;13.804;2022-09-16T02:51:26;22.90;99.90
28608;DHT22;15802;45.654;13.804;2022-09-16T02:53:57;23.00;99.90
28608;DHT22;15802;45.654;13.804;2022-09-16T02:56:28;23.00;99.90
28608;DHT22;15802;45.654;13.804;2022-09-16T02:58:55;23.00;99.90
28608;DHT22;15802;45.654;13.804;2022-09-16T03:01:21;22.90;99.90
28608;DHT22;15802;45.654;13.804;2022-09-16T03:03:47;22.90;99.90
28608;DHT22;15802;45.654;13.804;2022-09-16T03:06:16;23.00;99.90
28608;DHT22;15802;45.654;13.804;2022-09-16T03:08:42;23.00;99.90
28608;DHT22;15802;45.654;13.804;2022-09-16T03:11:15;23.00;99.90
28608;DHT22;15802;45.654;13.804;2022-09-16T03:16:30;23.00;99.90
28608;DHT22;15802;45.654;13.804;2022-09-16T03:19:02;23.00;99.90
28608;DHT22;15802;45.654;13.804;2022-09-16T03:24:51;23.00;99.90
28608;DHT22;15802;45.654;13.804;2022-09-16T03:27:19;23.10;99.90
28608;DHT22;15802;45.654;13.804;2022-09-16T03:29:48;23.10;99.90
28608;DHT22;15802;45.654;13.804;2022-09-16T03:32:17;23.10;99.90
28608;DHT22;15802;45.654;13.804;2022-09-16T03:34:50;23.10;99.90
28608;DHT22;15802;45.654;13.804;2022-09-16T03:37:17;23.10;99.90
28608;DHT22;15802;45.654;13.804;2022-09-16T03:39:47;23.00;99.90
28608;DHT22;15802;45.654;13.804;2022-09-16T03:42:15;23.00;99.90
28608;DHT22;15802;45.654;13.804;2022-09-16T03:44:41;23.00;99.90
28608;DHT22;15802;45.654;13.804;2022-09-16T03:47:07;23.00;99.90
28608;DHT22;15802;45.654;13.804;2022-09-16T03:49:33;23.00;99.90
28608;DHT22;15802;45.654;13.804;2022-09-16T03:51:59;23.00;99.90
28608;DHT22;15802;45.654;13.804;2022-09-16T03:54:25;23.00;99.90
28608;DHT22;15802;45.654;13.804;2022-09-16T03:56:51;22.90;99.90
28608;DHT22;15802;45.654;13.804;2022-09-16T03:59:16;22.90;99.90
28608;DHT22;15802;45.654;13.804;2022-09-16T04:01:42;22.90;99.90
28608;DHT22;15802;45.654;13.804;2022-09-16T04:04:08;22.90;99.90
28608;DHT22;15802;45.654;13.804;2022-09-16T04:06:34;22.80;99.90
28608;DHT22;15802;45.654;13.804;2022-09-16T04:09:02;22.80;99.90
28608;DHT22;15802;45.654;13.804;2022-09-16T04:11:27;22.70;99.90
28608;DHT22;15802;45.654;13.804;2022-09-16T04:13:55;22.80;99.90
28608;DHT22;15802;45.654;13.804;2022-09-16T04:16:21;22.70;99.90
28608;DHT22;15802;45.654;13.804;2022-09-16T04:18:47;22.70;99.90
28608;DHT22;15802;45.654;13.804;2022-09-16T04:21:13;22.70;99.90
28608;DHT22;15802;45.654;13.804;2022-09-16T04:23:39;22.70;99.90
28608;DHT22;15802;45.654;13.804;2022-09-16T04:26:04;22.70;99.90
28608;DHT22;15802;45.654;13.804;2022-09-16T04:28:31;22.70;99.90
28608;DHT22;15802;45.654;13.804;2022-09-16T04:30:58;22.70;99.90
28608;DHT22;15802;45.654;13.804;2022-09-16T04:33:26;22.70;99.90
28608;DHT22;15802;45.654;13.804;2022-09-16T04:35:52;22.80;99.90
28608;DHT22;15802;45.654;13.804;2022-09-16T04:38:18;22.80;99.90
28608;DHT22;15802;45.654;13.804;2022-09-16T04:40:44;22.80;99.90
28608;DHT22;15802;45.654;13.804;2022-09-16T04:43:09;22.80;99.90
28608;DHT22;15802;45.654;13.804;2022-09-16T04:45:35;22.80;99.90
28608;DHT22;15802;45.654;13.804;2022-09-16T04:48:01;22.80;99.90
28608;DHT22;15802;45.654;13.804;2022-09-16T04:50:27;22.90;99.90
28608;DHT22;15802;45.654;13.804;2022-09-16T04:52:52;22.80;99.90
28608;DHT22;15802;45.654;13.804;2022-09-16T04:55:18;22.90;99.90
28608;DHT22;15802;45.654;13.804;2022-09-16T04:57:47;22.80;99.90
28608;DHT22;15802;45.654;13.804;2022-09-16T05:00:13;22.90;99.90
28608;DHT22;15802;45.654;13.804;2022-09-16T05:02:39;22.80;99.90
28608;DHT22;15802;45.654;13.804;2022-09-16T05:05:05;22.80;99.90
28608;DHT22;15802;45.654;13.804;2022-09-16T05:07:31;22.90;99.90
28608;DHT22;15802;45.654;13.804;2022-09-16T05:09:56;22.90;99.90
28608;DHT22;15802;45.654;13.804;2022-09-16T05:12:22;22.80;99.90
28608;DHT22;15802;45.654;13.804;2022-09-16T05:14:48;22.90;99.90
28608;DHT22;15802;45.654;13.804;2022-09-16T05:17:17;22.80;99.90
28608;DHT22;15802;45.654;13.804;2022-09-16T05:19:42;22.90;99.90
28608;DHT22;15802;45.654;13.804;2022-09-16T05:22:08;22.80;99.90
28608;DHT22;15802;45.654;13.804;2022-09-16T05:24:34;22.80;99.90
28608;DHT22;15802;45.654;13.804;2022-09-16T05:27:01;22.80;99.90
28608;DHT22;15802;45.654;13.804;2022-09-16T05:29:26;22.90;99.90
28608;DHT22;15802;45.654;13.804;2022-09-16T05:31:52;22.90;99.90
28608;DHT22;15802;45.654;13.804;2022-09-16T05:34:19;22.90;99.90
28608;DHT22;15802;45.654;13.804;2022-09-16T05:36:45;22.90;99.90
28608;DHT22;15802;45.654;13.804;2022-09-16T05:39:12;22.90;99.90
28608;DHT22;15802;45.654;13.804;2022-09-16T05:41:38;22.90;99.90
28608;DHT22;15802;45.654;13.804;2022-09-16T05:44:04;22.90;99.90
28608;DHT22;15802;45.654;13.804;2022-09-16T05:46:31;23.00;99.90
28608;DHT22;15802;45.654;13.804;2022-09-16T05:48:57;23.00;99.90
28608;DHT22;15802;45.654;13.804;2022-09-16T05:51:23;23.00;99.90
28608;DHT22;15802;45.654;13.804;2022-09-16T05:53:50;23.10;99.90
28608;DHT22;15802;45.654;13.804;2022-09-16T05:56:16;23.10;99.90
28608;DHT22;15802;45.654;13.804;2022-09-16T05:58:42;23.10;99.90
28608;DHT22;15802;45.654;13.804;2022-09-16T06:01:12;23.10;99.90
28608;DHT22;15802;45.654;13.804;2022-09-16T06:03:39;23.10;99.90
28608;DHT22;15802;45.654;13.804;2022-09-16T06:08:50;23.10;99.90
28608;DHT22;15802;45.654;13.804;2022-09-16T06:11:17;23.10;99.90
28608;DHT22;15802;45.654;13.804;2022-09-16T06:13:43;23.10;99.90
28608;DHT22;15802;45.654;13.804;2022-09-16T06:16:09;23.10;99.90
28608;DHT22;15802;45.654;13.804;2022-09-16T06:18:35;23.10;99.90
28608;DHT22;15802;45.654;13.804;2022-09-16T06:23:33;23.10;99.90
28608;DHT22;15802;45.654;13.804;2022-09-16T06:25:59;23.10;99.90
28608;DHT22;15802;45.654;13.804;2022-09-16T06:28:25;23.20;99.90
28608;DHT22;15802;45.654;13.804;2022-09-16T06:30:59;23.20;99.90
28608;DHT22;15802;45.654;13.804;2022-09-16T06:33:26;23.20;99.90
28608;DHT22;15802;45.654;13.804;2022-09-16T06:35:52;23.20;99.90
28608;DHT22;15802;45.654;13.804;2022-09-16T06:38:18;23.20;99.90
28608;DHT22;15802;45.654;13.804;2022-09-16T06:40:43;23.20;99.90
28608;DHT22;15802;45.654;13.804;2022-09-16T06:43:09;23.20;99.90
28608;DHT22;15802;45.654;13.804;2022-09-16T06:45:34;23.20;99.90
28608;DHT22;15802;45.654;13.804;2022-09-16T06:48:00;23.30;99.90
28608;DHT22;15802;45.654;13.804;2022-09-16T06:50:26;23.30;99.90
28608;DHT22;15802;45.654;13.804;2022-09-16T06:52:52;23.30;99.90
28608;DHT22;15802;45.654;13.804;2022-09-16T06:55:17;23.30;99.90
28608;DHT22;15802;45.654;13.804;2022-09-16T06:57:43;23.30;99.90
28608;DHT22;15802;45.654;13.804;2022-09-16T07:00:09;23.30;99.90
28608;DHT22;15802;45.654;13.804;2022-09-16T07:02:35;23.30;99.90
28608;DHT22;15802;45.654;13.804;2022-09-16T07:05:00;23.30;99.90
28608;DHT22;15802;45.654;13.804;2022-09-16T07:07:28;23.30;99.90
28608;DHT22;15802;45.654;13.804;2022-09-16T07:09:54;23.30;99.90
28608;DHT22;15802;45.654;13.804;2022-09-16T07:12:19;23.40;99.90
28608;DHT22;15802;45.654;13.804;2022-09-16T07:14:45;23.40;99.90
28608;DHT22;15802;45.654;13.804;2022-09-16T07:17:11;23.40;99.90
28608;DHT22;15802;45.654;13.804;2022-09-16T07:19:36;23.50;99.90
28608;DHT22;15802;45.654;13.804;2022-09-16T07:22:02;23.50;99.90
28608;DHT22;15802;45.654;13.804;2022-09-16T07:24:28;23.50;99.90
28608;DHT22;15802;45.654;13.804;2022-09-16T07:26:54;23.50;99.90
28608;DHT22;15802;45.654;13.804;2022-09-16T07:29:19;23.50;99.90
28608;DHT22;15802;45.654;13.804;2022-09-16T07:31:46;23.40;99.90
28608;DHT22;15802;45.654;13.804;2022-09-16T07:34:12;23.30;99.90
28608;DHT22;15802;45.654;13.804;2022-09-16T07:36:39;23.30;99.90
28608;DHT22;15802;45.654;13.804;2022-09-16T07:39:05;23.30;99.90
28608;DHT22;15802;45.654;13.804;2022-09-16T07:41:32;23.40;99.90
28608;DHT22;15802;45.654;13.804;2022-09-16T07:43:59;23.40;99.90
28608;DHT22;15802;45.654;13.804;2022-09-16T07:46:25;23.30;99.90
28608;DHT22;15802;45.654;13.804;2022-09-16T07:48:52;23.30;99.90
28608;DHT22;15802;45.654;13.804;2022-09-16T07:51:19;23.30;99.90
28608;DHT22;15802;45.654;13.804;2022-09-16T07:53:46;23.30;99.90
28608;DHT22;15802;45.654;13.804;2022-09-16T07:56:14;23.30;99.90
28608;DHT22;15802;45.654;13.804;2022-09-16T07:58:39;23.40;99.90
28608;DHT22;15802;45.654;13.804;2022-09-16T08:01:06;23.40;99.90
28608;DHT22;15802;45.654;13.804;2022-09-16T08:03:32;23.40;99.90
28608;DHT22;15802;45.654;13.804;2022-09-16T08:06:00;23.30;99.90
28608;DHT22;15802;45.654;13.804;2022-09-16T08:08:26;23.30;99.90
28608;DHT22;15802;45.654;13.804;2022-09-16T08:10:52;23.20;99.90
28608;DHT22;15802;45.654;13.804;2022-09-16T08:13:19;23.10;99.90
28608;DHT22;15802;45.654;13.804;2022-09-16T08:15:44;23.00;99.90
28608;DHT22;15802;45.654;13.804;2022-09-16T08:18:10;23.10;99.90
28608;DHT22;15802;45.654;13.804;2022-09-16T08:20:36;23.10;99.90
28608;DHT22;15802;45.654;13.804;2022-09-16T08:23:02;23.10;99.90
28608;DHT22;15802;45.654;13.804;2022-09-16T08:25:27;23.20;99.90
28608;DHT22;15802;45.654;13.804;2022-09-16T08:27:56;23.40;99.90
28608;DHT22;15802;45.654;13.804;2022-09-16T08:30:23;23.50;99.90
28608;DHT22;15802;45.654;13.804;2022-09-16T08:32:57;23.60;99.90
28608;DHT22;15802;45.654;13.804;2022-09-16T08:35:23;23.60;99.90
28608;DHT22;15802;45.654;13.804;2022-09-16T08:37:50;23.70;99.90
28608;DHT22;15802;45.654;13.804;2022-09-16T08:40:17;23.80;99.90
28608;DHT22;15802;45.654;13.804;2022-09-16T08:42:54;23.90;99.90
28608;DHT22;15802;45.654;13.804;2022-09-16T08:45:25;24.00;99.90
28608;DHT22;15802;45.654;13.804;2022-09-16T08:50:38;24.00;99.90
28608;DHT22;15802;45.654;13.804;2022-09-16T08:53:09;23.90;99.90
28608;DHT22;15802;45.654;13.804;2022-09-16T08:55:39;23.70;99.90
28608;DHT22;15802;45.654;13.804;2022-09-16T08:58:15;23.60;99.90
28608;DHT22;15802;45.654;13.804;2022-09-16T09:00:42;23.50;99.90
28608;DHT22;15802;45.654;13.804;2022-09-16T09:05:55;23.20;99.90
28608;DHT22;15802;45.654;13.804;2022-09-16T09:08:29;23.10;99.90
28608;DHT22;15802;45.654;13.804;2022-09-16T09:11:00;23.10;99.90
28608;DHT22;15802;45.654;13.804;2022-09-16T09:16:18;23.00;99.90
28608;DHT22;15802;45.654;13.804;2022-09-16T09:18:51;22.70;99.90
28608;DHT22;15802;45.654;13.804;2022-09-16T09:21:25;22.30;99.90
28608;DHT22;15802;45.654;13.804;2022-09-16T09:24:03;22.00;99.90
28608;DHT22;15802;45.654;13.804;2022-09-16T09:26:41;22.00;99.90
28608;DHT22;15802;45.654;13.804;2022-09-16T09:29:14;21.90;99.90
28608;DHT22;15802;45.654;13.804;2022-09-16T09:31:52;21.70;99.90
28608;DHT22;15802;45.654;13.804;2022-09-16T09:34:28;21.70;99.90
28608;DHT22;15802;45.654;13.804;2022-09-16T09:37:09;21.80;99.90
28608;DHT22;15802;45.654;13.804;2022-09-16T09:39:50;21.80;99.90
28608;DHT22;15802;45.654;13.804;2022-09-16T09:42:25;21.90;99.90
28608;DHT22;15802;45.654;13.804;2022-09-16T09:44:55;22.00;99.90
28608;DHT22;15802;45.654;13.804;2022-09-16T09:47:23;22.00;99.90
28608;DHT22;15802;45.654;13.804;2022-09-16T09:49:54;22.00;99.90
28608;DHT22;15802;45.654;13.804;2022-09-16T09:52:25;22.20;99.90
28608;DHT22;15802;45.654;13.804;2022-09-16T09:54:51;22.30;99.90
28608;DHT22;15802;45.654;13.804;2022-09-16T09:57:23;22.40;99.90
28608;DHT22;15802;45.654;13.804;2022-09-16T09:59:55;22.50;99.90
28608;DHT22;15802;45.654;13.804;2022-09-16T10:02:23;22.70;99.90
28608;DHT22;15802;45.654;13.804;2022-09-16T10:04:49;22.80;99.90
28608;DHT22;15802;45.654;13.804;2022-09-16T10:07:17;22.80;99.90
28608;DHT22;15802;45.654;13.804;2022-09-16T10:09:51;22.80;99.90
28608;DHT22;15802;45.654;13.804;2022-09-16T10:12:33;22.70;99.90
28608;DHT22;15802;45.654;13.804;2022-09-16T10:14:59;22.50;99.90
28608;DHT22;15802;45.654;13.804;2022-09-16T10:17:26;22.30;99.90
28608;DHT22;15802;45.654;13.804;2022-09-16T10:19:57;22.30;99.90
28608;DHT22;15802;45.654;13.804;2022-09-16T10:22:25;22.30;99.90
28608;DHT22;15802;45.654;13.804;2022-09-16T10:24:52;22.40;99.90
28608;DHT22;15802;45.654;13.804;2022-09-16T10:30:18;22.60;99.90
28608;DHT22;15802;45.654;13.804;2022-09-16T10:32:50;22.60;99.90
28608;DHT22;15802;45.654;13.804;2022-09-16T10:35:24;22.60;99.90
28608;DHT22;15802;45.654;13.804;2022-09-16T10:37:55;22.50;99.90
28608;DHT22;15802;45.654;13.804;2022-09-16T10:40:25;22.50;99.90
28608;DHT22;15802;45.654;13.804;2022-09-16T10:42:56;22.40;99.90
28608;DHT22;15802;45.654;13.804;2022-09-16T10:45:29;22.40;99.90
28608;DHT22;15802;45.654;13.804;2022-09-16T10:48:00;22.60;99.90
28608;DHT22;15802;45.654;13.804;2022-09-16T10:50:30;22.60;99.90
28608;DHT22;15802;45.654;13.804;2022-09-16T10:52:56;22.70;99.90
28608;DHT22;15802;45.654;13.804;2022-09-16T10:55:24;22.90;99.90
28608;DHT22;15802;45.654;13.804;2022-09-16T10:57:51;23.00;99.90
28608;DHT22;15802;45.654;13.804;2022-09-16T11:00:21;23.00;99.90
28608;DHT22;15802;45.654;13.804;2022-09-16T11:03:15;23.00;99.90
28608;DHT22;15802;45.654;13.804;2022-09-16T11:05:51;22.90;99.90
28608;DHT22;15802;45.654;13.804;2022-09-16T11:08:33;22.90;99.90
28608;DHT22;15802;45.654;13.804;2022-09-16T11:11:06;22.80;99.90
28608;DHT22;15802;45.654;13.804;2022-09-16T11:13:38;22.80;99.90
28608;DHT22;15802;45.654;13.804;2022-09-16T11:16:16;22.70;99.90
28608;DHT22;15802;45.654;13.804;2022-09-16T11:19:03;22.70;99.90
28608;DHT22;15802;45.654;13.804;2022-09-16T11:21:51;22.90;99.90
28608;DHT22;15802;45.654;13.804;2022-09-16T11:24:41;23.10;99.90
28608;DHT22;15802;45.654;13.804;2022-09-16T11:27:14;23.20;99.90
28608;DHT22;15802;45.654;13.804;2022-09-16T11:29:47;23.40;99.90
28608;DHT22;15802;45.654;13.804;2022-09-16T11:32:21;23.50;99.90
28608;DHT22;15802;45.654;13.804;2022-09-16T11:34:57;23.70;99.90
28608;DHT22;15802;45.654;13.804;2022-09-16T11:37:28;23.90;99.90
28608;DHT22;15802;45.654;13.804;2022-09-16T11:40:04;24.20;99.90
28608;DHT22;15802;45.654;13.804;2022-09-16T11:42:34;24.30;99.90
28608;DHT22;15802;45.654;13.804;2022-09-16T11:47:47;24.60;99.90
28608;DHT22;15802;45.654;13.804;2022-09-16T11:53:11;24.70;99.90
28608;DHT22;15802;45.654;13.804;2022-09-16T11:58:26;24.80;99.90
28608;DHT22;15802;45.654;13.804;2022-09-16T12:00:55;25.00;99.90
28608;DHT22;15802;45.654;13.804;2022-09-16T12:03:26;24.90;99.90
28608;DHT22;15802;45.654;13.804;2022-09-16T12:05:53;24.90;99.90
28608;DHT22;15802;45.654;13.804;2022-09-16T12:08:21;24.90;99.90
28608;DHT22;15802;45.654;13.804;2022-09-16T12:10:54;25.10;99.90
28608;DHT22;15802;45.654;13.804;2022-09-16T12:13:41;25.20;99.90
28608;DHT22;15802;45.654;13.804;2022-09-16T12:16:11;25.30;99.90
28608;DHT22;15802;45.654;13.804;2022-09-16T12:18:41;25.30;99.90
28608;DHT22;15802;45.654;13.804;2022-09-16T12:21:09;25.30;99.90
28608;DHT22;15802;45.654;13.804;2022-09-16T12:23:40;25.40;99.90
28608;DHT22;15802;45.654;13.804;2022-09-16T12:26:09;25.30;99.90
28608;DHT22;15802;45.654;13.804;2022-09-16T12:28:38;25.20;99.90
28608;DHT22;15802;45.654;13.804;2022-09-16T12:31:25;25.00;99.90
28608;DHT22;15802;45.654;13.804;2022-09-16T12:33:55;24.90;99.90
28608;DHT22;15802;45.654;13.804;2022-09-16T12:36:24;24.80;99.90
28608;DHT22;15802;45.654;13.804;2022-09-16T12:38:51;24.90;99.90
28608;DHT22;15802;45.654;13.804;2022-09-16T12:41:23;24.90;99.90
28608;DHT22;15802;45.654;13.804;2022-09-16T12:44:12;24.90;99.90
28608;DHT22;15802;45.654;13.804;2022-09-16T12:46:48;24.80;99.90
28608;DHT22;15802;45.654;13.804;2022-09-16T12:49:37;24.60;99.90
28608;DHT22;15802;45.654;13.804;2022-09-16T12:54:54;24.40;99.90
28608;DHT22;15802;45.654;13.804;2022-09-16T12:57:43;24.50;99.90
28608;DHT22;15802;45.654;13.804;2022-09-16T13:00:11;24.50;99.90
28608;DHT22;15802;45.654;13.804;2022-09-16T13:02:43;24.70;99.90
28608;DHT22;15802;45.654;13.804;2022-09-16T13:05:15;24.60;99.90
28608;DHT22;15802;45.654;13.804;2022-09-16T13:07:42;24.70;99.90
28608;DHT22;15802;45.654;13.804;2022-09-16T13:10:16;24.80;99.90
28608;DHT22;15802;45.654;13.804;2022-09-16T13:12:47;24.90;99.90
28608;DHT22;15802;45.654;13.804;2022-09-16T13:15:23;24.90;99.90
28608;DHT22;15802;45.654;13.804;2022-09-16T13:17:49;24.80;99.90
28608;DHT22;15802;45.654;13.804;2022-09-16T13:20:19;24.80;99.90
28608;DHT22;15802;45.654;13.804;2022-09-16T13:22:49;25.00;99.90
28608;DHT22;15802;45.654;13.804;2022-09-16T13:25:20;25.20;99.90
28608;DHT22;15802;45.654;13.804;2022-09-16T13:28:03;25.40;99.90
28608;DHT22;15802;45.654;13.804;2022-09-16T13:30:31;25.70;99.90
28608;DHT22;15802;45.654;13.804;2022-09-16T13:32:59;25.80;99.90
28608;DHT22;15802;45.654;13.804;2022-09-16T13:35:41;25.80;99.90
28608;DHT22;15802;45.654;13.804;2022-09-16T13:38:19;25.90;99.90
28608;DHT22;15802;45.654;13.804;2022-09-16T13:40:53;25.70;99.90
28608;DHT22;15802;45.654;13.804;2022-09-16T13:43:37;25.40;99.90
28608;DHT22;15802;45.654;13.804;2022-09-16T13:46:06;25.30;99.90
28608;DHT22;15802;45.654;13.804;2022-09-16T13:48:34;25.30;99.90
28608;DHT22;15802;45.654;13.804;2022-09-16T13:51:00;25.30;99.90
28608;DHT22;15802;45.654;13.804;2022-09-16T13:53:31;25.30;99.90
28608;DHT22;15802;45.654;13.804;2022-09-16T13:56:00;25.30;99.90
28608;DHT22;15802;45.654;13.804;2022-09-16T13:58:29;25.30;99.90
28608;DHT22;15802;45.654;13.804;2022-09-16T14:01:03;25.10;99.90
28608;DHT22;15802;45.654;13.804;2022-09-16T14:03:36;24.90;99.90
28608;DHT22;15802;45.654;13.804;2022-09-16T14:06:18;24.70;99.90
28608;DHT22;15802;45.654;13.804;2022-09-16T14:08:57;24.60;99.90
28608;DHT22;15802;45.654;13.804;2022-09-16T14:11:30;24.60;99.90
28608;DHT22;15802;45.654;13.804;2022-09-16T14:14:00;24.30;99.90
28608;DHT22;15802;45.654;13.804;2022-09-16T14:16:27;24.20;99.90
28608;DHT22;15802;45.654;13.804;2022-09-16T14:18:58;24.20;99.90
28608;DHT22;15802;45.654;13.804;2022-09-16T14:21:25;24.30;99.90
28608;DHT22;15802;45.654;13.804;2022-09-16T14:23:51;24.30;99.90
28608;DHT22;15802;45.654;13.804;2022-09-16T14:26:19;24.40;99.90
28608;DHT22;15802;45.654;13.804;2022-09-16T14:28:45;24.40;99.90
28608;DHT22;15802;45.654;13.804;2022-09-16T14:31:13;24.40;99.90
28608;DHT22;15802;45.654;13.804;2022-09-16T14:33:42;24.50;99.90
28608;DHT22;15802;45.654;13.804;2022-09-16T14:36:11;24.50;99.90
28608;DHT22;15802;45.654;13.804;2022-09-16T14:38:41;24.40;99.90
28608;DHT22;15802;45.654;13.804;2022-09-16T14:41:08;24.20;99.90
28608;DHT22;15802;45.654;13.804;2022-09-16T14:43:35;23.90;99.90
28608;DHT22;15802;45.654;13.804;2022-09-16T14:46:02;23.60;99.90
28608;DHT22;15802;45.654;13.804;2022-09-16T14:48:30;23.50;99.90
28608;DHT22;15802;45.654;13.804;2022-09-16T14:50:57;23.40;99.90
28608;DHT22;15802;45.654;13.804;2022-09-16T14:53:27;23.40;99.90
28608;DHT22;15802;45.654;13.804;2022-09-16T14:55:53;23.20;99.90
28608;DHT22;15802;45.654;13.804;2022-09-16T14:58:19;23.20;99.90
28608;DHT22;15802;45.654;13.804;2022-09-16T15:00:47;23.10;99.90
28608;DHT22;15802;45.654;13.804;2022-09-16T15:03:16;23.10;99.90
28608;DHT22;15802;45.654;13.804;2022-09-16T15:05:44;22.90;99.90
28608;DHT22;15802;45.654;13.804;2022-09-16T15:08:15;22.70;99.90
28608;DHT22;15802;45.654;13.804;2022-09-16T15:10:46;22.60;99.90
28608;DHT22;15802;45.654;13.804;2022-09-16T15:13:13;22.50;99.90
28608;DHT22;15802;45.654;13.804;2022-09-16T15:15:43;22.50;99.90
28608;DHT22;15802;45.654;13.804;2022-09-16T15:18:22;22.40;99.90
28608;DHT22;15802;45.654;13.804;2022-09-16T15:20:51;22.40;99.90
28608;DHT22;15802;45.654;13.804;2022-09-16T15:23:19;22.40;99.90
28608;DHT22;15802;45.654;13.804;2022-09-16T15:25:52;22.30;99.90
28608;DHT22;15802;45.654;13.804;2022-09-16T15:28:19;22.20;99.90
28608;DHT22;15802;45.654;13.804;2022-09-16T15:30:47;22.10;99.90
28608;DHT22;15802;45.654;13.804;2022-09-16T15:33:22;21.90;99.90
28608;DHT22;15802;45.654;13.804;2022-09-16T15:35:49;21.80;99.90
28608;DHT22;15802;45.654;13.804;2022-09-16T15:38:19;21.80;99.90
28608;DHT22;15802;45.654;13.804;2022-09-16T15:40:45;21.70;99.90
28608;DHT22;15802;45.654;13.804;2022-09-16T15:43:13;21.60;99.90
28608;DHT22;15802;45.654;13.804;2022-09-16T15:45:41;21.60;99.90
28608;DHT22;15802;45.654;13.804;2022-09-16T15:48:12;21.50;99.90
28608;DHT22;15802;45.654;13.804;2022-09-16T15:50:40;21.50;99.90
28608;DHT22;15802;45.654;13.804;2022-09-16T15:53:17;21.40;99.90
28608;DHT22;15802;45.654;13.804;2022-09-16T15:55:53;21.30;99.90
28608;DHT22;15802;45.654;13.804;2022-09-16T15:58:22;21.20;99.90
28608;DHT22;15802;45.654;13.804;2022-09-16T16:00:55;21.20;99.90
28608;DHT22;15802;45.654;13.804;2022-09-16T16:03:21;21.10;99.90
28608;DHT22;15802;45.654;13.804;2022-09-16T16:05:49;21.30;99.90
28608;DHT22;15802;45.654;13.804;2022-09-16T16:08:35;21.30;99.90
28608;DHT22;15802;45.654;13.804;2022-09-16T16:11:05;21.20;99.90
28608;DHT22;15802;45.654;13.804;2022-09-16T16:13:31;21.20;99.90
28608;DHT22;15802;45.654;13.804;2022-09-16T16:15:57;21.00;99.90